In Rescue
 
Open Full Screen Window  High Contrast Mode
Wind Gusting 16 knots
11
May 27, 2024 2:32 PM CDT
Weather Information
Wind Direction
  290 °
Wind Speed
  11 kt (13 mph)
Wind Gust
  16 kt (18 mph)
Altimeter
29.82 in
Visibility
10 SM
Temperature
20° C
68° F
Dewpoint
12° C
54° F
Humidity
60%
Sky Condition
Scattered @ 9,000 ft
Scattered @ 3,700 ft
VFR

METAR KAQP 271932Z AUTO 29011G16KT 10SM SCT037 SCT090 20/12 A2982 RMK AO2 TSNO

FAA Disclaimer: The data displayed is for advisory purposes only and is not to be used for flight planning or operations.